Terminal Aerodrome Forecast
Issued by NWS

Current Version | Previous Version | Text Only | Print | Product List | Glossary On
Versions: 1 2 3 4 5 6 7 8 9 10 11 12 13 14 15 16 17 18 19 20 21 22 23 24 25 26 27 28 29 30 31
000
FTUS41 KOKX 280541
TAFGON
TAF
KGON 280541Z 2806/0106 21004KT P6SM SCT110
     FM281100 10004KT P6SM BKN070
     FM281800 14007KT P6SM SCT025 BKN060
     FM282100 15008KT P6SM BKN020 OVC040
     FM010200 13007KT 3SM -RA BR BKN006 OVC010
     FM010500 14008KT 1SM RA BR OVC004=

USA.gov is the U.S. government's official web portal to all federal, state and local government web resources and services.